Leon Schubert

Recruteur - Bayer Leverkusen
3 Déc 2028
Dimanche
Processus

Personnalité

Adaptabilité (4) Ambition (10) Controverse (9) Loyauté (20) Pression (20) Professionnalisme (12) Sportivité (1) Tempérament (7)

Profil

Style d'entraînement Démocratique
Diplôme Continental Pro
Détermination 10
Gestion des joueurs 8
Motivation 13
Discipline 11
Satisfaction professionnelle
89%
Fatigue
0%
Rôle Recruteur
Salaire 58.5K p/s
Contrat 14.03.2029

Performance

Comportement Bon
Efficacité de l'entraînement
50%
Développement des joueurs
50%
Prévention des blessures
40%
Mise en place tactique
55%

Événements récents

A participé à une réunion de recrutement maintenant
A participé à une réunion de recrutement maintenant
A participé à une réunion de recrutement maintenant
A évalué un joueur maintenant
A évalué un joueur maintenant
A évalué un joueur maintenant
A évalué un joueur maintenant
A observé un match maintenant

Suivi en cours

247
Joueur Club Statut Capacité Confiance Observé Dernière observation Dernier vote
Felipe Augusto KAA Gent Actif 141 / 142 40% 5 01.12.2028 -
Ayyoub Bouaddi Stoke City Actif 152 / 159 40% 2 01.12.2028 -
Kyrell Wilson Barnet Actif 129 / 122 40% 2 01.12.2028 -
Philipp Maybach Red Bull Salzburg Actif 110 / 126 40% 1 01.12.2028 -
Olivier Mambwa Young Boys Actif 117 / 125 40% 3 28.11.2028 -
Tommy Watson Cardiff City Actif 137 / 137 40% 4 28.11.2028 -
Tyler Fletcher Rotherham United Actif 118 / 128 40% 2 28.11.2028 -
Riquelme Thompson-Jones Accrington Stanley Actif 115 / 121 40% 1 27.11.2028 -
Veljko Milosavljević Bournemouth Actif 156 / 158 40% 1 27.11.2028 -
Chupete Málaga Actif 150 / 142 40% 2 26.11.2028 -
Matías Abaldo Ferencvaros Actif 128 / 140 40% 4 26.11.2028 -
Luis Otávio Orlando City Actif 130 / 135 40% 3 25.11.2028 -
Vitor Roque TSG Hoffenheim Actif 155 / 154 40% 5 23.11.2028 -
Ibrahim Osman Norwich City Actif 141 / 151 40% 2 23.11.2028 -
Nəriman Axundzadə Columbus Crew Actif 127 / 133 40% 3 22.11.2028 -
Amin Chiakha Rosenborg Actif 117 / 129 40% 3 22.11.2028 -
Martim Cunha Porto Actif 112 / 113 40% 1 22.11.2028 -
Thulani Manyama Portland Timbers Actif 130 / 125 40% 1 22.11.2028 -
Marc Bernal Sevilla Actif 156 / 153 40% 5 21.11.2028 -
Sindre Walle Egeli Udinese Actif 137 / 141 40% 2 18.11.2028 -
Umeh Emmanuel Zurich Actif 128 / 131 40% 2 17.11.2028 -
Chris Rigg West Ham United Actif 139 / 147 40% 1 17.11.2028 -
Sebastian Rodriguez Houston Dynamo Actif 122 / 114 40% 1 17.11.2028 -
Jorge Salinas Racing Santander Actif 138 / 141 40% 5 16.11.2028 -
Noah Markmann Esbjerg Actif 127 / 128 40% 2 16.11.2028 -
Nicolò Tresoldi Club Brugge Actif 150 / 147 40% 2 15.11.2028 -
Francesco Pio Esposito Frosinone Actif 159 / 152 40% 1 15.11.2028 -
Pau Cubarsí Real Sociedad Actif 170 / 171 40% 15 14.11.2028 -
Ryan Francisco Palmeiras Actif 114 / 133 40% 4 12.11.2028 -
Harry Gray Harrogate Town Actif 132 / 137 40% 2 12.11.2028 -
Edmund Baidoo St. Gallen Actif 127 / 130 40% 5 11.11.2028 -
Mihajlo Cvetković Club Brugge Actif 126 / 135 40% 3 11.11.2028 -
Trey Nyoni Rotherham United Actif 146 / 150 40% 6 10.11.2028 -
Jorthy Mokio ADO Den Haag Actif 130 / 138 40% 5 10.11.2028 -
Santiago Castro OGC Nice Actif 157 / 158 40% 1 10.11.2028 -
Jayden Danns Bradford City Actif 138 / 141 40% 2 09.11.2028 -
Norman Bassette Coventry City Actif 132 / 121 40% 1 09.11.2028 -
Eduardo Lozano Botafogo Actif 155 / 159 40% 3 05.11.2028 -
Celías Ingenthron Platense Actif 119 / 117 40% 2 04.11.2028 -
Leon Grgić Werder Bremen Actif 139 / 150 40% 1 04.11.2028 -
Marc Guiu Köln Actif 139 / 145 40% 1 04.11.2028 -
Matias Siltanen Malmo FF Actif 131 / 139 40% 6 02.11.2028 -
Andrija Bulatović Chamois Niortais Actif 130 / 143 40% 2 02.11.2028 -
Christian Kofane Hamburger SV Actif 148 / 157 40% 5 02.11.2028 -
Endrick Boca Juniors Actif 171 / 164 40% 7 31.10.2028 -
Mamadou Doumbia Rotherham United Actif 135 / 129 40% 1 31.10.2028 -
Sota Kitano Red Bull Salzburg Actif 135 / 131 40% 2 30.10.2028 -
Mikey Moore Stockport County Actif 136 / 146 40% 1 30.10.2028 -
Max Dean KAA Gent Actif 119 / 119 40% 2 29.10.2028 -
Xavier Biscayzacú Penarol Actif 125 / 128 40% 2 29.10.2028 -
Matías Fernández-Pardo Atalanta Actif 147 / 153 40% 1 28.10.2028 -
Peyton Miller New England Revolution Actif 107 / 133 40% 1 24.10.2028 -
Miguel Figueiredo Benfica Actif 125 / 135 40% 2 23.10.2028 -
Rayan Hamburger SV Actif 150 / 147 40% 4 21.10.2028 Observer
Idan Toklomati Charlotte Football Club Actif 139 / 135 40% 1 21.10.2028 -
Harrison Armstrong Ipswich Town Actif 136 / 147 40% 1 21.10.2028 -
Felipe Chávez Werder Bremen Actif 135 / 131 40% 1 19.10.2028 -
Marko Zebić Lucko Actif 112 / 126 40% 1 17.10.2028 -
Germán Barbas Racing Santander Actif 120 / 123 40% 1 17.10.2028 -
Giovanni Leoni Lincoln City Actif 148 / 154 40% 5 15.10.2028 -
Adrian Svanbäck BK Hacken Actif 119 / 128 40% 3 15.10.2028 -
Tobías Ramírez River Plate Actif 117 / 134 40% 1 15.10.2028 -
Babis Kostoulas Oxford United Actif 148 / 157 40% 2 10.10.2028 -
Facinet Conté Young Boys Actif 127 / 127 40% 1 10.10.2028 -
Yoan Bonny Porto Actif 153 / 157 40% 1 08.10.2028 -
Markus Walker FC Nordsjaelland Actif 125 / 124 40% 1 07.10.2028 -
Dor Turgeman Spartak Moscow Actif 128 / 134 40% 1 03.10.2028 -
Mateo Joseph Leeds United Actif 147 / 146 40% 1 26.09.2028 -
Pablo Felipe West Ham United Actif 145 / 150 40% 2 23.09.2028 -
Petter Nosa Dahl Rapid Wien Actif 130 / 133 40% 1 21.09.2028 -
Mohamed-Ali Cho Hull City Actif 145 / 153 40% 3 18.09.2028 -
Emersonn Ipswich Town Actif 132 / 138 40% 1 11.09.2028 -
Mathys Tel Tottenham Actif 148 / 155 40% 1 11.09.2028 -
Alejo Veliz Bahia Actif 146 / 143 40% 1 07.09.2028 -
Eli Junior Kroupi Bournemouth Actif 156 / 152 40% 1 06.09.2028 -
Juan Gauto Basel Actif 130 / 128 40% 1 04.09.2028 -
Yassir Zabiri Stade Rennais Actif 136 / 140 40% 1 04.09.2028 -
Carl Rushworth Aston Villa Actif 151 / 153 40% 1 31.07.2028 -
Joe Walsh Queens Park Rangers Actif 120 / 119 40% 1 31.07.2028 -
Jorge Cabezas Hurtado Watford Actif 127 / 123 40% 1 24.07.2028 -
Guillaume Restes Toulouse FC Actif 147 / 152 40% 1 20.06.2028 -
Maarten Vandevoordt RB Leipzig Actif 160 / 151 40% 1 20.06.2028 Plus d'infos
Fábio Carvalho Brentford Actif 155 / 148 40% 2 14.06.2028 -
Matheus Cunha Manchester United Actif 171 / 163 40% 1 14.06.2028 -
Patrick Beach Melbourne City Actif 122 / 111 40% 1 02.06.2028 -
Chris Brady Ajax Actif 145 / 152 40% 1 02.06.2028 -
Woo-Yeong Jeong Union Berlin Perdu 150 / 139 62% 1 01.06.2028 -
Killian Cahill Leyton Orient Actif 111 / 112 40% 1 31.05.2028 -
Joe Whitworth Wigan Athletic Actif 119 / 130 40% 1 31.05.2028 -
Lucas Høgsberg RC Strasbourg Actif 142 / 138 40% 5 30.05.2028 -
Jan Bürger Northampton Town Actif 119 / 123 40% 8 28.05.2028 -
Ayden Heaven Portsmouth Actif 142 / 145 40% 4 26.05.2028 -
João Simões Sporting CP Actif 137 / 141 40% 4 23.05.2028 -
Andrey Ivlev Nizhniy Novgorod Actif 102 / 108 40% 2 18.05.2028 -
Thijs Kraaijeveld USM Alger Actif 134 / 123 40% 2 14.05.2028 -
Illaijh de Ruijter ADO Den Haag Actif 121 / 121 40% 2 11.05.2028 -
Kiani Inge Groningen Actif 116 / 117 40% 1 10.05.2028 -
Daniel Banjaqui Benfica Actif 120 / 128 40% 2 07.05.2028 -
Noahkai Banks FC Augsburg Actif 151 / 151 40% 3 06.05.2028 Observer
Thato Sibiya Orlando Pirates Actif 102 / 109 40% 1 02.05.2028 -
Honest Ahanor Atalanta Actif 137 / 146 40% 7 01.05.2028 -
Pape Diong Westerlo Actif 122 / 131 40% 1 01.05.2028 -
Héctor Fort Real Sociedad Actif 146 / 142 40% 4 26.04.2028 -
Christos Mouzakitis Hull City Actif 133 / 146 40% 1 22.04.2028 -
Josh Acheampong Everton Actif 137 / 142 40% 6 17.04.2028 -
Mohammed El Âdfaoui Westerlo Actif 114 / 119 40% 1 14.04.2028 -
Josh Nichols Oldham Athletic Actif 123 / 121 40% 2 08.04.2028 -
Izan Merino Málaga Actif 135 / 128 40% 6 27.03.2028 -
Kauã Moraes Flamengo Actif 140 / 131 40% 3 23.03.2028 -
Sławomir Abramowicz Jagiellonia Actif 140 / 150 40% 2 31.12.2027 -
Victor Hernandez Santa Fe Actif 126 / 136 40% 10 11.12.2027 -
Fodé Sylla Sion Actif 122 / 120 40% 3 09.12.2027 -
Caleb Yirenkyi Coventry City Actif 145 / 141 40% 6 23.11.2027 -
Jakob Schöller Altach Actif 105 / 112 40% 3 17.11.2027 -
Archie Gray Southampton Actif 143 / 159 40% 2 08.11.2027 -
Esquerdinha Notts County Actif 122 / 123 40% 1 02.11.2027 -
Kosta Nedeljković Aston Villa Actif 140 / 144 40% 4 29.10.2027 -
Corsin Konietzke St. Gallen Actif 114 / 122 40% 3 07.10.2027 -
Lucas Bergvall Tottenham Actif 149 / 155 40% 5 20.09.2027 -
Yusi Alavés Actif 129 / 134 40% 2 17.09.2027 -
Agustín Obregón River Plate Actif 123 / 108 40% 1 17.09.2027 -
Nazareno Roselli Defensa y Justicia Actif 105 / 115 40% 2 13.09.2027 -
Adrian Skogmar Malmo FF Actif 117 / 129 40% 1 01.09.2027 -
Dejan Radonjić SV Ried Actif 117 / 120 40% 2 31.08.2027 -
Mbekezeli Mbokazi Chicago Fire Actif 136 / 127 40% 3 21.08.2027 -
Sascha Britschgi AC Milan Actif 122 / 131 40% 3 20.08.2027 -
Ronan Kpakio AC Milan Actif 114 / 127 40% 1 12.08.2027 -
Givairo Read Feyenoord Actif 149 / 148 40% 4 09.08.2027 -
Victor Froholdt Porto Actif 160 / 163 40% 2 09.08.2027 -
Kees Smit AZ Actif 151 / 154 40% 4 29.07.2027 -
Ethan Williams Peterborough United Actif 109 / 116 40% 3 28.07.2027 -
Romelle Donovan Brentford Actif 134 / 136 40% 1 26.07.2027 -
Oscar Schwartau Norwich City Actif 124 / 124 40% 1 26.07.2027 -
Jonathan Asp-Jensen Deportivo La Coruña Actif 119 / 123 40% 1 23.07.2027 -
Ryan Oné Sheffield United Actif 113 / 115 40% 1 19.07.2027 -
Jan Virgili Club Brugge Actif 130 / 146 40% 2 17.07.2027 -
Mohamadou Kanté Crawley Town Actif 124 / 121 40% 1 17.07.2027 -
Louis Leroux FC Nantes Actif 132 / 133 40% 1 15.07.2027 -
Samuele di Benedetto Twente Actif 120 / 119 40% 4 09.07.2027 -
Justin Treichel Roda Actif 119 / 113 40% 1 05.07.2027 -
Nestory Irankunda Watford Actif 114 / 128 40% 1 02.07.2027 -
Leo Sauer VfB Stuttgart Actif 133 / 143 40% 1 26.06.2027 -
Mert Kömür FC Augsburg Actif 127 / 127 40% 1 25.06.2027 -
Tiago Freitas Benfica Actif 119 / 118 40% 1 23.06.2027 -
Nikolaus Wurmbrand Girona Actif 126 / 128 40% 2 19.06.2027 -
Gonçalo Oliveira Benfica Actif 115 / 115 40% 2 16.06.2027 -
Jens Stage Werder Bremen Actif 139 / 146 58% 1 07.06.2027 -
Johnny Cardoso Atlético Madrid Actif 151 / 154 40% 6 29.05.2027 -
James Garner Everton Actif 154 / 148 40% 2 29.05.2027 -
Takefusa Kubo VfB Stuttgart Actif 147 / 149 40% 3 28.05.2027 -
Lorenzo Colombo Genoa Actif 143 / 133 40% 1 28.05.2027 -
Fran García Betis Actif 152 / 146 40% 1 28.05.2027 -
Maximilian Beier Borussia Dortmund Actif 154 / 154 40% 1 26.05.2027 -
Dušan Vlahović Hamburger SV Actif 153 / 150 40% 5 25.05.2027 -
Thiago Brentford Actif 143 / 139 40% 2 25.05.2027 -
Gavi Barcelona Actif 167 / 164 40% 1 25.05.2027 -
Jarrad Branthwaite Everton Actif 161 / 161 40% 1 25.05.2027 -
Marc Pubill Atlético Madrid Actif 145 / 145 40% 1 23.05.2027 -
Maroan Sannadi Athletic Bilbao Actif 137 / 137 40% 3 22.05.2027 -
Georges Mikautadze Villarreal Actif 163 / 156 40% 2 21.05.2027 -
Mats Wieffer Brighton Actif 152 / 143 40% 3 21.05.2027 -
Omar El Hilali Espanyol Actif 148 / 148 40% 1 21.05.2027 -
Jonathan Dubasin Osasuna Actif 147 / 135 40% 4 19.05.2027 -
Marvin Keller Chelsea Actif 145 / 151 40% 4 19.05.2027 -
Troy Parrott Betis Actif 147 / 139 40% 1 19.05.2027 -
Carlos Romero Villarreal Actif 146 / 150 40% 3 18.05.2027 -
Andrés Martín Racing Santander Actif 140 / 129 40% 4 16.05.2027 -
Oliver Dovin Coventry City Actif 139 / 135 40% 3 16.05.2027 -
Isaac Romero Sevilla Actif 153 / 145 40% 6 14.05.2027 -
Pau Víctor Braga Actif 150 / 146 40% 4 14.05.2027 -
Adam Hložek TSG Hoffenheim Actif 146 / 137 40% 4 11.05.2027 -
Miloš Kerkez Liverpool Actif 155 / 155 40% 1 11.05.2027 -
Yussif Saidu Zaragoza Actif 125 / 131 40% 1 11.05.2027 -
Lewis Hall Newcastle United Actif 148 / 148 40% 5 09.05.2027 -
Dani Vivian Athletic Bilbao Actif 154 / 146 40% 1 09.05.2027 -
Quinten Timber Crystal Palace Actif 156 / 151 40% 1 07.05.2027 -
Charles Martin Bayern Munich Actif 160 / 155 40% 1 07.05.2027 -
Alphonso Davies Bayern Munich Actif 175 / 168 40% 3 06.05.2027 -
Giacomo Raspadori Atalanta Actif 153 / 151 40% 1 05.05.2027 -
Abel Ruiz Girona Actif 143 / 139 40% 1 04.05.2027 -
Pablo Barrios Atlético Madrid Actif 159 / 156 40% 2 03.05.2027 -
Roberto Fernández Braga Actif 144 / 144 40% 2 02.05.2027 -
Óscar Mingueza Crystal Palace Actif 158 / 143 40% 5 01.05.2027 -
Nico O'Reilly Manchester City Actif 157 / 163 40% 8 29.04.2027 -
Ousmane Diomande Nottingham Forest Actif 152 / 152 40% 1 29.04.2027 -
Willian Pacho Paris Saint-Germain Actif 160 / 161 40% 2 26.04.2027 -
Sven Botman Newcastle United Actif 154 / 154 40% 1 25.04.2027 -
Deniz Ertaş Konyaspor Actif 118 / 126 40% 2 23.04.2027 -
Nicolas Jackson Aston Villa Actif 146 / 155 40% 2 22.04.2027 -
Ez Abde Betis Actif 147 / 144 40% 1 20.04.2027 -
Doğan Alemdar Basaksehir Actif 102 / 107 40% 1 19.04.2027 -
Radek Vítek Middlesbrough Actif 129 / 138 40% 4 17.04.2027 -
João Pedro Chelsea Actif 143 / 145 40% 2 14.04.2027 -
José Ángel Carmona Sevilla Actif 144 / 145 40% 1 14.04.2027 -
Boubacar Kamara Aston Villa Actif 158 / 163 40% 1 14.04.2027 -
Juan Diego Castillo Vitoria Guimaraes Actif 127 / 120 40% 1 13.04.2027 -
Maxence Lacroix Chelsea Actif 146 / 157 40% 4 10.04.2027 -
Rocco Vata Watford Actif 131 / 121 40% 1 10.04.2027 -
Nico Schlotterbeck Borussia Dortmund Actif 160 / 170 40% 1 08.04.2027 -
João Neves Paris Saint-Germain Actif 168 / 174 40% 1 07.04.2027 -
Alex Scott Bournemouth Actif 153 / 155 40% 1 05.04.2027 -
Moisés Caicedo Chelsea Actif 171 / 170 40% 4 31.03.2027 -
Samuel Soares Benfica Actif 131 / 139 40% 5 30.03.2027 -
Wilson Isidor Sunderland Actif 141 / 132 40% 1 30.03.2027 -
Rodrigo Muniz Fulham Actif 138 / 145 40% 2 27.03.2027 -
Mio Backhaus SC Freiburg Actif 135 / 137 40% 3 24.03.2027 -
Aitor Fraga Real Sociedad Actif 124 / 124 40% 2 16.03.2027 -
Josh Keeley Luton Town Actif 131 / 123 40% 1 16.03.2027 -
Aurélien Tchouaméni Real Madrid Actif 160 / 168 40% 1 13.03.2027 -
Marc Guéhi Manchester City Actif 169 / 166 40% 1 13.03.2027 -
Joško Gvardiol Manchester City Actif 174 / 162 40% 1 11.03.2027 -
Jan Paul van Hecke Tottenham Actif 156 / 153 40% 1 10.03.2027 -
Leandrinho Sharjah Actif 121 / 111 40% 1 10.03.2027 -
Senne Lammens Manchester United Actif 151 / 151 40% 4 08.03.2027 -
Bruno Ogbus St. Pauli Actif 132 / 132 40% 1 08.03.2027 -
Ryan Gravenberch Liverpool Actif 156 / 168 40% 1 05.03.2027 -
Alexander Prass TSG Hoffenheim Actif 129 / 142 58% 1 02.01.2027 -
Zion Suzuki Aston Villa Actif 134 / 146 40% 2 30.12.2026 -
Dmytro Riznyk Racing Genk Actif 142 / 140 40% 1 26.12.2026 -
Hugo Ekitiké Liverpool Actif 168 / 166 40% 1 24.12.2026 -
Rodrygo Real Madrid Actif 174 / 168 40% 1 21.12.2026 -
Karl Hein Werder Bremen Actif 142 / 137 40% 2 18.12.2026 -
Luiz Júnior Villarreal Actif 141 / 147 40% 1 14.12.2026 -
Lazar Carević Famalicao Actif 135 / 130 40% 1 13.12.2026 -
Gabriel Brazão Santos Actif 119 / 141 40% 1 04.12.2026 -
James Trafford Leeds United Actif 151 / 144 40% 3 01.12.2026 -
Pedri Barcelona Actif 178 / 185 40% 1 25.11.2026 -
Arthur Avom Ebong FC Lorient Actif 134 / 125 40% 1 25.11.2026 -
Giorgi Mamardashvili Liverpool Actif 150 / 163 40% 3 19.11.2026 -
Gonzalo Crettaz NEC Actif 128 / 127 40% 1 19.11.2026 -
Lautaro Vargas Unión de Santa Fe Actif 115 / 114 40% 2 18.11.2026 -
Francisco Conceição Köln Actif 160 / 169 40% 1 15.11.2026 -
Nico Williams Athletic Bilbao Actif 174 / 167 40% 1 13.11.2026 -
Hugo Souza Corinthians Actif 124 / 144 40% 3 11.11.2026 -
Mads Hermansen West Ham United Actif 132 / 137 40% 1 07.11.2026 -
Samuel Marques Grasshopper Actif 118 / 110 40% 1 07.11.2026 -
Caoimhin Kelleher Brentford Actif 154 / 153 40% 1 05.11.2026 -
Mile Svilar AS Roma Actif 169 / 148 40% 1 28.10.2026 -
Grégoire Coudert Burnley Actif 122 / 123 40% 1 25.10.2026 -
Kauã Santos Eintracht Frankfurt Actif 137 / 129 40% 1 24.10.2026 -
Valentino Ilsanker Mattersburg Actif 104 / 116 40% 1 19.10.2026 -
Khvicha Kvaratskhelia Paris Saint-Germain Actif 161 / 173 40% 1 19.10.2026 -
Michael Olise Bayern Munich Actif 183 / 179 40% 1 17.10.2026 -
Pablo Campos Levante Actif 131 / 136 40% 1 11.10.2026 -
Anthony Patterson Wrexham Actif 120 / 129 40% 1 08.10.2026 -
Valentín Aguiñagalde Temperley Actif 117 / 123 40% 1 08.10.2026 -
Yaimar Medina Racing Genk Actif 123 / 121 40% 1 07.10.2026 -